AAL1172 KMIA-KLAX
Flight info
| Callsign | AAL1172 |
|---|---|
| Flight time | N/A |
| Altitude | 38000 |
| Route | HURCN4 SMELZ Q116 JAWJA WIILL MHZ TXK ADM YOCAN ABQ DRK GABBL HLYWD1 |
| Aircraft | B772/H-SDE2E3FGHIJ5LORVWXY/LB1D1 |
Departure
| Time | 2026-05-05 21:15 |
|---|---|
| Airport | Miami International Airport (KMIA) |
Arrival
| Time | N/A |
|---|---|
| Airport | Los Angeles International Airport (KLAX) |
| Time | Latitude | Longitude | Altitude | Speed | Heading |
|---|---|---|---|---|---|
| 2026-05-05 19:28 | 25.79827 | -80.28090 | 21 ft | 0 kts | 221° |
| 2026-05-05 21:04 | 25.79828 | -80.28090 | 19 ft | 1 kts | 221° |
| 2026-05-05 21:04 | 25.79846 | -80.28072 | 23 ft | 4 kts | 221° |
| 2026-05-05 21:05 | 25.79866 | -80.28052 | 22 ft | 4 kts | 221° |
| 2026-05-05 21:05 | 25.79886 | -80.28032 | 23 ft | 4 kts | 221° |
| 2026-05-05 21:05 | 25.79895 | -80.28024 | 22 ft | 0 kts | 221° |
| 2026-05-05 21:09 | 25.79878 | -80.28063 | 19 ft | 10 kts | 265° |
| 2026-05-05 21:09 | 25.79905 | -80.28130 | 20 ft | 10 kts | 310° |
| 2026-05-05 21:09 | 25.79948 | -80.28190 | 19 ft | 10 kts | 300° |
| 2026-05-05 21:09 | 25.79957 | -80.28264 | 19 ft | 10 kts | 266° |
| 2026-05-05 21:10 | 25.79952 | -80.28364 | 19 ft | 15 kts | 266° |
| 2026-05-05 21:10 | 25.79946 | -80.28478 | 19 ft | 15 kts | 267° |
| 2026-05-05 21:10 | 25.79941 | -80.28592 | 20 ft | 15 kts | 267° |
| 2026-05-05 21:10 | 25.79936 | -80.28712 | 20 ft | 16 kts | 268° |
| 2026-05-05 21:11 | 25.79932 | -80.28836 | 20 ft | 16 kts | 268° |
| 2026-05-05 21:11 | 25.79927 | -80.28960 | 20 ft | 16 kts | 268° |
| 2026-05-05 21:11 | 25.79923 | -80.29085 | 20 ft | 16 kts | 268° |
| 2026-05-05 21:11 | 25.79918 | -80.29209 | 20 ft | 16 kts | 267° |
| 2026-05-05 21:12 | 25.79912 | -80.29337 | 19 ft | 19 kts | 267° |
| 2026-05-05 21:12 | 25.79905 | -80.29488 | 19 ft | 20 kts | 267° |
| 2026-05-05 21:12 | 25.79898 | -80.29639 | 19 ft | 20 kts | 268° |
| 2026-05-05 21:12 | 25.79915 | -80.29786 | 19 ft | 20 kts | 289° |
| 2026-05-05 21:13 | 25.79967 | -80.29926 | 18 ft | 20 kts | 288° |
| 2026-05-05 21:13 | 25.80005 | -80.30071 | 18 ft | 19 kts | 286° |
| 2026-05-05 21:13 | 25.80053 | -80.30114 | 18 ft | 5 kts | 19° |
| 2026-05-05 21:13 | 25.80070 | -80.30085 | 18 ft | 5 kts | 71° |
| 2026-05-05 21:14 | 25.80073 | -80.30049 | 18 ft | 5 kts | 87° |
| 2026-05-05 21:14 | 25.80082 | -80.29838 | 18 ft | 63 kts | 87° |
| 2026-05-05 21:14 | 25.80101 | -80.29399 | 20 ft | 108 kts | 87° |
| 2026-05-05 21:14 | 25.80147 | -80.28338 | 94 ft | 159 kts | 86° |
| 2026-05-05 21:15 | 25.80232 | -80.26671 | 894 ft | 165 kts | 85° |
| 2026-05-05 21:15 | 25.80286 | -80.25799 | 1276 ft | 171 kts | 85° |
| 2026-05-05 21:15 | 25.80360 | -80.24471 | 1950 ft | 178 kts | 86° |
| 2026-05-05 21:15 | 25.80421 | -80.23006 | 2160 ft | 203 kts | 86° |
| 2026-05-05 21:16 | 25.80482 | -80.21333 | 2314 ft | 230 kts | 86° |
| 2026-05-05 21:16 | 25.80546 | -80.19462 | 2579 ft | 253 kts | 85° |
| 2026-05-05 21:16 | 25.81007 | -80.17560 | 2978 ft | 262 kts | 56° |
| 2026-05-05 21:16 | 25.82348 | -80.16206 | 3558 ft | 265 kts | 22° |
| 2026-05-05 21:17 | 25.84142 | -80.15839 | 4199 ft | 262 kts | 359° |
| 2026-05-05 21:17 | 25.85996 | -80.15803 | 4750 ft | 269 kts | 359° |
| 2026-05-05 21:17 | 25.87857 | -80.15755 | 5382 ft | 272 kts | 359° |